Time;durP1;ratioP1;P1;durP2;ratioP2;P2;SDS_P1;SDS_P2;PMS_P1;PMS_P2;Temp;Humidity;BMP_temperature;BMP_pressure;BME280_temperature;BME280_humidity;BME280_pressure;Samples;Min_cycle;Max_cycle;Signal;HPM_P1;HPM_P2
2022/06/15 00:00:30;;;;;;;;;40.50;32.00;;;;;;;;5118498;27;8795;-57
2022/06/15 00:03:27;;;;;;;;;31.50;26.50;;;;;;;;5116282;27;8759;-54
2022/06/15 00:06:37;;;;;;;;;39.75;31.50;;;;;;;;5093815;27;9544;-57
2022/06/15 00:09:22;;;;;;;;;27.50;20.25;;;;;;;;5082913;27;8797;-53
2022/06/15 00:12:08;;;;;;;;;29.25;27.50;;;;;;;;5098026;28;8776;-55
2022/06/15 00:15:14;;;;;;;;;33.50;29.25;;;;;;;;5097747;28;8753;-55
2022/06/15 00:18:04;;;;;;;;;29.25;27.25;;;;;;;;5097656;28;8797;-55
2022/06/15 00:20:50;;;;;;;;;27.25;26.75;;;;;;;;5097957;28;8773;-57
2022/06/15 00:23:46;;;;;;;;;31.75;26.00;;;;;;;;5097623;28;8738;-56
2022/06/15 00:26:33;;;;;;;;;28.50;25.25;;;;;;;;5097884;28;8777;-55
2022/06/15 00:29:17;;;;;;;;;23.75;21.75;;;;;;;;5097684;28;8781;-56
2022/06/15 00:32:04;;;;;;;;;36.50;28.00;;;;;;;;5097358;28;8911;-54
2022/06/15 00:34:50;;;;;;;;;25.75;23.50;;;;;;;;5097475;28;8784;-56
2022/06/15 00:37:44;;;;;;;;;26.50;22.50;;;;;;;;5097010;28;8816;-55
2022/06/15 00:40:28;;;;;;;;;28.50;25.00;;;;;;;;5097304;28;8765;-55
2022/06/15 00:43:14;;;;;;;;;26.25;24.75;;;;;;;;5097054;28;8796;-56
2022/06/15 00:46:00;;;;;;;;;25.50;22.50;;;;;;;;5097268;28;8816;-54
2022/06/15 00:49:16;;;;;;;;;23.50;22.25;;;;;;;;5095758;28;8789;-56
2022/06/15 00:52:05;;;;;;;;;25.25;22.25;;;;;;;;5096802;28;9552;-56
2022/06/15 00:55:04;;;;;;;;;28.75;26.50;;;;;;;;5097075;28;8781;-53
2022/06/15 00:57:51;;;;;;;;;28.75;24.00;;;;;;;;5095909;28;8807;-56
2022/06/15 01:00:40;;;;;;;;;25.50;25.00;;;;;;;;5097202;28;8771;-56
2022/06/15 01:03:39;;;;;;;;;26.50;25.50;;;;;;;;5100061;27;8798;-54
2022/06/15 01:06:34;;;;;;;;;31.75;23.75;;;;;;;;5117408;27;8767;-56
2022/06/15 01:09:24;;;;;;;;;33.50;23.00;;;;;;;;5117654;27;8795;-56
2022/06/15 01:12:11;;;;;;;;;28.75;26.75;;;;;;;;5117238;27;9465;-55
2022/06/15 01:15:18;;;;;;;;;31.00;27.00;;;;;;;;5117033;27;8795;-55
2022/06/15 01:18:18;;;;;;;;;30.00;25.25;;;;;;;;5115710;27;8799;-56
2022/06/15 01:21:28;;;;;;;;;25.75;24.75;;;;;;;;5116835;27;8774;-55
2022/06/15 01:24:31;;;;;;;;;32.00;26.00;;;;;;;;5116486;28;8786;-56
2022/06/15 01:27:19;;;;;;;;;27.25;24.25;;;;;;;;5117188;28;8782;-54
2022/06/15 01:30:22;;;;;;;;;32.25;25.25;;;;;;;;5116803;28;8897;-56
2022/06/15 01:33:22;;;;;;;;;31.00;27.50;;;;;;;;5116722;28;8782;-55
2022/06/15 01:36:25;;;;;;;;;31.00;25.50;;;;;;;;5116855;28;8782;-56
2022/06/15 01:39:21;;;;;;;;;30.75;28.75;;;;;;;;5116467;28;8826;-54
2022/06/15 01:42:22;;;;;;;;;32.50;28.00;;;;;;;;5117129;28;9559;-54
2022/06/15 01:45:12;;;;;;;;;35.75;27.50;;;;;;;;5116109;28;8925;-56
2022/06/15 01:48:00;;;;;;;;;28.25;25.00;;;;;;;;5117038;28;8818;-55
2022/06/15 01:50:56;;;;;;;;;25.00;23.25;;;;;;;;5117095;28;9681;-56
2022/06/15 01:53:44;;;;;;;;;30.75;25.25;;;;;;;;5102634;27;8779;-56
2022/06/15 01:56:54;;;;;;;;;31.75;30.00;;;;;;;;5121072;27;8791;-55
2022/06/15 01:59:46;;;;;;;;;30.25;27.25;;;;;;;;5120942;27;8798;-56
2022/06/15 02:02:36;;;;;;;;;28.75;25.50;;;;;;;;5120810;27;8810;-56
2022/06/15 02:05:39;;;;;;;;;0.00;0.00;;;;;;;;5100941;28;8801;-56
2022/06/15 02:08:58;;;;;;;;;30.75;25.50;;;;;;;;5100276;28;8812;-54
2022/06/15 02:12:04;;;;;;;;;32.50;28.50;;;;;;;;5100331;28;8789;-53
2022/06/15 02:14:58;;;;;;;;;32.25;27.00;;;;;;;;5100161;28;8776;-55
2022/06/15 02:17:55;;;;;;;;;25.50;24.50;;;;;;;;5084780;28;8808;-55
2022/06/15 02:20:50;;;;;;;;;33.75;27.00;;;;;;;;5099498;28;8792;-57
2022/06/15 02:23:39;;;;;;;;;34.00;28.25;;;;;;;;5099968;28;8761;-54
2022/06/15 02:26:28;;;;;;;;;30.25;27.50;;;;;;;;5099895;28;8788;-54
2022/06/15 02:29:17;;;;;;;;;25.50;22.75;;;;;;;;5099792;28;8797;-54
2022/06/15 02:32:03;;;;;;;;;38.25;27.50;;;;;;;;5099298;28;8801;-54
2022/06/15 02:34:48;;;;;;;;;33.00;25.25;;;;;;;;5099300;28;8769;-55
2022/06/15 02:37:34;;;;;;;;;32.00;26.50;;;;;;;;5099578;28;9553;-54
2022/06/15 02:40:24;;;;;;;;;28.00;26.00;;;;;;;;5099660;28;8789;-56
2022/06/15 02:43:12;;;;;;;;;21.75;20.50;;;;;;;;5099414;28;8805;-57
2022/06/15 02:45:58;;;;;;;;;34.50;28.50;;;;;;;;5099449;28;8785;-55
2022/06/15 02:48:42;;;;;;;;;29.75;24.50;;;;;;;;5099454;28;8781;-56
2022/06/15 02:51:38;;;;;;;;;29.00;27.75;;;;;;;;5099293;28;8788;-54
2022/06/15 02:54:27;;;;;;;;;33.00;28.00;;;;;;;;5099347;28;8800;-56
2022/06/15 02:57:12;;;;;;;;;31.75;25.25;;;;;;;;5098882;28;8792;-54
2022/06/15 02:59:57;;;;;;;;;25.75;23.50;;;;;;;;5099273;28;8789;-55
2022/06/15 03:02:43;;;;;;;;;31.50;27.75;;;;;;;;5099345;28;8777;-56
2022/06/15 03:05:38;;;;;;;;;30.00;26.50;;;;;;;;5099119;28;8808;-55
2022/06/15 03:08:24;;;;;;;;;27.00;27.00;;;;;;;;5099131;28;8809;-56
2022/06/15 03:11:13;;;;;;;;;33.25;29.25;;;;;;;;5098987;28;8805;-53
2022/06/15 03:14:17;;;;;;;;;35.75;28.50;;;;;;;;5098827;28;8801;-56
2022/06/15 03:17:06;;;;;;;;;31.00;27.50;;;;;;;;5098853;28;8796;-55
2022/06/15 03:19:56;;;;;;;;;26.50;25.50;;;;;;;;5099016;28;8796;-56
2022/06/15 03:22:42;;;;;;;;;31.50;25.25;;;;;;;;5098998;28;8769;-56
2022/06/15 03:25:27;;;;;;;;;28.25;22.25;;;;;;;;5098698;28;9560;-56
2022/06/15 03:28:18;;;;;;;;;25.00;21.00;;;;;;;;5098518;28;8813;-56
2022/06/15 03:31:04;;;;;;;;;25.75;23.00;;;;;;;;5098763;28;8784;-53
2022/06/15 03:33:53;;;;;;;;;27.25;24.25;;;;;;;;5098422;28;8785;-56
2022/06/15 03:36:47;;;;;;;;;20.75;20.75;;;;;;;;5098799;28;9537;-54
2022/06/15 03:39:43;;;;;;;;;26.00;24.25;;;;;;;;5098643;28;8797;-55
2022/06/15 03:42:29;;;;;;;;;24.75;22.00;;;;;;;;5098450;28;9476;-57
2022/06/15 03:45:15;;;;;;;;;31.50;26.75;;;;;;;;5098153;28;8796;-55
2022/06/15 03:48:01;;;;;;;;;26.75;25.50;;;;;;;;5098366;28;8800;-56
2022/06/15 03:50:45;;;;;;;;;29.75;27.00;;;;;;;;5098298;28;9549;-55
2022/06/15 03:53:32;;;;;;;;;32.50;26.00;;;;;;;;5098156;28;8773;-54
2022/06/15 03:56:32;;;;;;;;;33.75;29.00;;;;;;;;5082851;28;8777;-54
2022/06/15 03:59:20;;;;;;;;;27.50;25.25;;;;;;;;5097965;28;8804;-54
2022/06/15 04:02:05;;;;;;;;;31.25;26.00;;;;;;;;5098027;28;8784;-57
2022/06/15 04:05:10;;;;;;;;;23.75;23.50;;;;;;;;5097148;28;8781;-56
2022/06/15 04:14:21;;;;;;;;;23.75;22.50;;;;;;;;5097939;28;8793;-54
2022/06/15 04:17:13;;;;;;;;;28.00;24.50;;;;;;;;5097169;28;8765;-56
2022/06/15 04:23:05;;;;;;;;;26.25;25.25;;;;;;;;5105617;27;8933;-56
2022/06/15 04:25:51;;;;;;;;;34.25;26.25;;;;;;;;5097619;28;8793;-55
2022/06/15 04:28:38;;;;;;;;;26.75;25.50;;;;;;;;5097599;28;8793;-55
2022/06/15 04:31:29;;;;;;;;;27.25;27.00;;;;;;;;5093726;27;8793;-56
2022/06/15 04:34:17;;;;;;;;;25.50;25.00;;;;;;;;5102407;27;8786;-56
2022/06/15 04:37:03;;;;;;;;;30.00;27.00;;;;;;;;5083554;28;8777;-54
2022/06/15 04:39:48;;;;;;;;;33.75;28.00;;;;;;;;5103600;27;8777;-56
2022/06/15 04:42:33;;;;;;;;;27.50;24.25;;;;;;;;5095827;28;8781;-54
2022/06/15 04:45:25;;;;;;;;;33.00;28.50;;;;;;;;5096976;28;8781;-56
2022/06/15 04:48:10;;;;;;;;;31.25;26.50;;;;;;;;5096998;28;8797;-55
2022/06/15 04:50:55;;;;;;;;;34.00;28.25;;;;;;;;5090268;28;8777;-55
2022/06/15 04:53:40;;;;;;;;;33.00;29.50;;;;;;;;5096427;28;8784;-53
2022/06/15 04:56:25;;;;;;;;;30.00;27.00;;;;;;;;5096864;28;8777;-54
2022/06/15 04:59:11;;;;;;;;;28.25;22.50;;;;;;;;5081745;28;9557;-57
2022/06/15 05:01:55;;;;;;;;;25.25;23.50;;;;;;;;5097343;28;8773;-57
2022/06/15 05:04:43;;;;;;;;;23.75;20.00;;;;;;;;5096639;28;8935;-56
2022/06/15 05:07:30;;;;;;;;;20.00;19.75;;;;;;;;5081822;28;9683;-55
2022/06/15 05:10:23;;;;;;;;;23.50;20.25;;;;;;;;5096947;28;8788;-55
2022/06/15 05:13:10;;;;;;;;;23.50;22.25;;;;;;;;5096945;28;8907;-56
2022/06/15 05:15:55;;;;;;;;;30.25;25.25;;;;;;;;5096992;28;8761;-54
2022/06/15 05:18:39;;;;;;;;;27.75;25.75;;;;;;;;5096562;28;8812;-54
2022/06/15 05:21:24;;;;;;;;;26.25;21.50;;;;;;;;5096941;28;8769;-54
2022/06/15 05:24:09;;;;;;;;;16.75;16.50;;;;;;;;5081658;28;8765;-57
2022/06/15 05:26:54;;;;;;;;;21.50;17.25;;;;;;;;5096478;28;8773;-54
2022/06/15 05:29:38;;;;;;;;;20.50;15.50;;;;;;;;5100065;28;8773;-55
2022/06/15 05:32:29;;;;;;;;;18.75;16.25;;;;;;;;5100894;28;9677;-56
2022/06/15 05:35:18;;;;;;;;;20.50;16.50;;;;;;;;5101068;28;8777;-55
2022/06/15 05:38:04;;;;;;;;;21.00;16.00;;;;;;;;5097149;28;8801;-54
2022/06/15 05:40:50;;;;;;;;;24.75;21.25;;;;;;;;5100333;28;8765;-55
2022/06/15 05:43:44;;;;;;;;;22.00;19.50;;;;;;;;5100008;28;8765;-55
2022/06/15 05:46:34;;;;;;;;;23.75;20.25;;;;;;;;5100547;28;8765;-54
2022/06/15 05:49:19;;;;;;;;;19.25;18.50;;;;;;;;5085192;28;8785;-54
2022/06/15 05:52:24;;;;;;;;;24.00;20.50;;;;;;;;5100179;28;8765;-56
2022/06/15 05:55:09;;;;;;;;;22.00;20.75;;;;;;;;5100424;28;8793;-55
2022/06/15 05:57:54;;;;;;;;;30.00;27.25;;;;;;;;5100611;28;8789;-55
2022/06/15 06:00:40;;;;;;;;;29.00;26.25;;;;;;;;5100399;28;8777;-55
2022/06/15 06:03:46;;;;;;;;;32.75;28.25;;;;;;;;5100326;28;8769;-54
2022/06/15 06:06:52;;;;;;;;;31.50;25.25;;;;;;;;5100393;28;8789;-56
2022/06/15 06:09:41;;;;;;;;;34.00;26.75;;;;;;;;5100505;28;8797;-55
2022/06/15 06:12:26;;;;;;;;;30.75;21.75;;;;;;;;5100073;28;9552;-55
2022/06/15 06:15:26;;;;;;;;;21.50;21.00;;;;;;;;5099999;28;8801;-56
2022/06/15 06:18:26;;;;;;;;;26.25;24.75;;;;;;;;5099956;28;9572;-54
2022/06/15 06:21:42;;;;;;;;;32.50;27.00;;;;;;;;5100089;28;8907;-56
2022/06/15 06:24:38;;;;;;;;;25.75;25.00;;;;;;;;5099755;28;8796;-54
2022/06/15 06:27:26;;;;;;;;;29.00;26.75;;;;;;;;5099747;28;8773;-54
2022/06/15 06:30:16;;;;;;;;;30.00;28.50;;;;;;;;5099978;28;9552;-56
2022/06/15 06:33:02;;;;;;;;;33.75;28.25;;;;;;;;5099836;28;8773;-55
2022/06/15 06:35:47;;;;;;;;;37.50;31.25;;;;;;;;5100098;28;8899;-56
2022/06/15 06:38:33;;;;;;;;;43.75;31.75;;;;;;;;5099617;28;8816;-54
2022/06/15 06:41:24;;;;;;;;;32.00;28.75;;;;;;;;5099705;28;8789;-54
2022/06/15 06:44:29;;;;;;;;;40.75;33.50;;;;;;;;5099697;28;8788;-56
2022/06/15 06:47:16;;;;;;;;;39.25;32.25;;;;;;;;5099285;28;8817;-57
2022/06/15 06:50:03;;;;;;;;;40.25;31.50;;;;;;;;5098949;28;8777;-55
2022/06/15 06:52:48;;;;;;;;;45.00;35.50;;;;;;;;5098443;28;8793;-56
2022/06/15 06:55:34;;;;;;;;;43.25;36.75;;;;;;;;5099316;28;8726;-56
2022/06/15 06:58:18;;;;;;;;;44.25;35.00;;;;;;;;5099380;28;8825;-55
2022/06/15 07:01:03;;;;;;;;;44.50;36.25;;;;;;;;5099178;28;8915;-56
2022/06/15 07:03:57;;;;;;;;;41.25;33.25;;;;;;;;5098765;28;8773;-56
2022/06/15 07:06:41;;;;;;;;;42.50;34.00;;;;;;;;5099103;28;8797;-55
2022/06/15 07:09:47;;;;;;;;;40.00;33.25;;;;;;;;5099360;28;9659;-55
2022/06/15 07:12:33;;;;;;;;;51.25;39.25;;;;;;;;5099215;28;8793;-56
2022/06/15 07:15:19;;;;;;;;;51.75;41.50;;;;;;;;5098913;28;8887;-54
2022/06/15 07:18:23;;;;;;;;;51.50;41.75;;;;;;;;5098907;28;8805;-55
2022/06/15 07:21:11;;;;;;;;;50.75;39.50;;;;;;;;5098630;28;9671;-56
2022/06/15 07:24:06;;;;;;;;;50.75;39.00;;;;;;;;5098632;28;8765;-54
2022/06/15 07:26:53;;;;;;;;;54.00;42.75;;;;;;;;5096066;28;8789;-55
2022/06/15 07:29:46;;;;;;;;;62.50;47.00;;;;;;;;5098812;28;8784;-53
2022/06/15 07:32:53;;;;;;;;;45.00;36.75;;;;;;;;5098966;28;9545;-55
2022/06/15 07:35:39;;;;;;;;;38.75;32.00;;;;;;;;5098716;28;8777;-54
2022/06/15 07:38:26;;;;;;;;;35.25;23.00;;;;;;;;5098518;28;8805;-55
2022/06/15 07:41:10;;;;;;;;;31.75;29.50;;;;;;;;5098626;28;8773;-53
2022/06/15 07:43:56;;;;;;;;;28.50;27.50;;;;;;;;5098368;28;8737;-54
2022/06/15 07:50:22;;;;;;;;;37.00;29.75;;;;;;;;5098234;28;8769;-55
2022/06/15 07:53:30;;;;;;;;;33.00;28.50;;;;;;;;5098028;28;8769;-55
2022/06/15 07:56:14;;;;;;;;;30.75;25.75;;;;;;;;5098205;28;8777;-55
2022/06/15 07:59:19;;;;;;;;;39.50;33.25;;;;;;;;5098190;28;8789;-54
2022/06/15 08:02:09;;;;;;;;;45.50;37.25;;;;;;;;5098284;28;8788;-51
2022/06/15 08:04:54;;;;;;;;;53.00;43.50;;;;;;;;5099453;27;8791;-52
2022/06/15 08:07:45;;;;;;;;;54.25;42.25;;;;;;;;5105361;27;8779;-54
2022/06/15 08:10:30;;;;;;;;;57.75;44.75;;;;;;;;5108866;27;8901;-56
2022/06/15 08:13:14;;;;;;;;;53.50;44.00;;;;;;;;5105282;27;8777;-55
2022/06/15 08:16:02;;;;;;;;;55.75;44.00;;;;;;;;5097321;28;8777;-54
2022/06/15 08:18:52;;;;;;;;;45.75;36.25;;;;;;;;5097924;28;8797;-55
2022/06/15 08:21:37;;;;;;;;;53.75;41.50;;;;;;;;5097824;28;9549;-55
2022/06/15 08:24:24;;;;;;;;;56.00;43.25;;;;;;;;5097615;28;8781;-55
2022/06/15 08:27:12;;;;;;;;;47.75;39.50;;;;;;;;5097293;28;8777;-56
2022/06/15 08:29:59;;;;;;;;;47.75;37.50;;;;;;;;5096932;28;8777;-54
2022/06/15 08:32:44;;;;;;;;;45.50;38.00;;;;;;;;5097831;28;8773;-54
2022/06/15 08:35:30;;;;;;;;;43.25;34.00;;;;;;;;5096987;28;8789;-58
2022/06/15 08:38:18;;;;;;;;;32.25;29.00;;;;;;;;5096606;28;8801;-58
2022/06/15 08:41:05;;;;;;;;;34.50;29.50;;;;;;;;5097233;28;8813;-59
2022/06/15 08:44:05;;;;;;;;;18.75;17.75;;;;;;;;5097260;28;8761;-59
2022/06/15 08:47:06;;;;;;;;;15.00;14.00;;;;;;;;5097313;28;9624;-59
2022/06/15 08:50:23;;;;;;;;;16.75;13.00;;;;;;;;5097205;28;8785;-60
2022/06/15 08:56:31;;;;;;;;;14.50;12.50;;;;;;;;4994637;28;8813;-58
2022/06/15 08:59:35;;;;;;;;;13.75;11.00;;;;;;;;4994580;28;8833;-57
2022/06/15 09:02:40;;;;;;;;;13.50;12.50;;;;;;;;5017057;28;8825;-58
2022/06/15 09:09:11;;;;;;;;;16.75;12.25;;;;;;;;5053767;28;8917;-58
2022/06/15 09:15:23;;;;;;;;;16.25;14.00;;;;;;;;5038282;28;8785;-58
2022/06/15 09:18:22;;;;;;;;;16.50;14.25;;;;;;;;5052739;28;8813;-59
2022/06/15 09:21:16;;;;;;;;;18.00;15.25;;;;;;;;5052788;28;8813;-59
2022/06/15 09:24:09;;;;;;;;;16.50;13.00;;;;;;;;5053431;28;9574;-59
2022/06/15 09:26:58;;;;;;;;;22.00;16.75;;;;;;;;5047499;28;8774;-58
2022/06/15 09:29:47;;;;;;;;;17.00;16.00;;;;;;;;5052675;28;8916;-58
2022/06/15 09:32:35;;;;;;;;;17.00;16.00;;;;;;;;5063874;28;8784;-60
2022/06/15 09:35:37;;;;;;;;;26.50;26.25;;;;;;;;5095968;28;8785;-60
2022/06/15 09:38:23;;;;;;;;;20.75;16.75;;;;;;;;5096151;28;8789;-60
2022/06/15 09:41:11;;;;;;;;;20.25;20.25;;;;;;;;5095811;28;8789;-59
2022/06/15 09:44:14;;;;;;;;;23.50;19.00;;;;;;;;5096100;28;8769;-58
2022/06/15 09:47:06;;;;;;;;;22.00;20.00;;;;;;;;5096052;28;8796;-59
2022/06/15 09:50:00;;;;;;;;;19.75;18.75;;;;;;;;5095948;28;8908;-60
2022/06/15 09:52:56;;;;;;;;;21.50;18.50;;;;;;;;5095959;28;9600;-60
2022/06/15 09:55:48;;;;;;;;;29.25;26.25;;;;;;;;5096099;28;8781;-59
2022/06/15 09:58:54;;;;;;;;;21.50;19.75;;;;;;;;5095380;28;9476;-60
2022/06/15 10:01:42;;;;;;;;;28.50;26.25;;;;;;;;5099647;28;8789;-61
2022/06/15 10:04:37;;;;;;;;;24.50;20.25;;;;;;;;5081041;28;8769;-58
2022/06/15 10:07:41;;;;;;;;;27.50;24.00;;;;;;;;5101528;28;9548;-59
2022/06/15 10:10:39;;;;;;;;;29.00;26.25;;;;;;;;5092199;28;8781;-60
2022/06/15 10:13:28;;;;;;;;;26.00;23.25;;;;;;;;5094772;28;8804;-60
2022/06/15 10:16:33;;;;;;;;;36.50;32.50;;;;;;;;5098585;27;8791;-58
2022/06/15 10:19:54;;;;;;;;;37.25;31.75;;;;;;;;5100510;27;8806;-60
2022/06/15 10:22:42;;;;;;;;;51.00;40.00;;;;;;;;5120184;27;8774;-61
2022/06/15 10:25:33;;;;;;;;;51.75;41.50;;;;;;;;5120095;27;8925;-61
2022/06/15 10:28:23;;;;;;;;;36.50;32.00;;;;;;;;5120181;27;8794;-58
2022/06/15 10:31:11;;;;;;;;;32.50;30.50;;;;;;;;5104084;27;8767;-60
2022/06/15 10:33:57;;;;;;;;;30.75;25.75;;;;;;;;5120126;27;8767;-59
2022/06/15 10:36:45;;;;;;;;;27.50;25.75;;;;;;;;5112611;27;8799;-59
2022/06/15 10:39:30;;;;;;;;;33.50;31.75;;;;;;;;5115423;27;8806;-59
2022/06/15 10:42:37;;;;;;;;;40.25;32.75;;;;;;;;5119276;27;8802;-59
2022/06/15 10:45:37;;;;;;;;;37.25;33.75;;;;;;;;5119588;27;8767;-60
2022/06/15 10:48:30;;;;;;;;;35.50;32.25;;;;;;;;5119465;27;8783;-60
2022/06/15 10:51:35;;;;;;;;;43.00;33.50;;;;;;;;5115937;27;8798;-60
2022/06/15 10:54:29;;;;;;;;;46.75;36.00;;;;;;;;5119560;27;8802;-61
2022/06/15 11:04:15;;;;;;;;;40.25;34.25;;;;;;;;5118960;27;8786;-59
2022/06/15 11:07:27;;;;;;;;;43.00;35.25;;;;;;;;5119229;27;8802;-59
2022/06/15 11:10:15;;;;;;;;;41.00;34.25;;;;;;;;5118767;27;8913;-60
2022/06/15 11:13:15;;;;;;;;;46.25;37.00;;;;;;;;5119243;27;8795;-59
2022/06/15 11:19:25;;;;;;;;;47.00;38.00;;;;;;;;5118662;27;8795;-59
2022/06/15 11:22:18;;;;;;;;;39.00;34.50;;;;;;;;5118705;27;8782;-58
2022/06/15 11:25:09;;;;;;;;;34.50;28.00;;;;;;;;5118696;27;8783;-59
2022/06/15 11:28:05;;;;;;;;;29.50;23.00;;;;;;;;5118466;27;8810;-60
2022/06/15 11:31:18;;;;;;;;;16.50;12.25;;;;;;;;5118539;27;8798;-59
2022/06/15 11:34:07;;;;;;;;;15.00;12.50;;;;;;;;5118353;27;8786;-59
2022/06/15 11:37:18;;;;;;;;;11.00;8.50;;;;;;;;5118324;27;8786;-54
2022/06/15 14:01:37;;;;;;;;;14.25;7.75;;;;;;;;4046304;32;10512970;-53
2022/06/15 14:04:41;;;;;;;;;15.25;10.50;;;;;;;;5097839;27;51285;-51
2022/06/15 14:07:47;;;;;;;;;15.50;8.25;;;;;;;;5097479;27;51130;-55
2022/06/15 14:10:53;;;;;;;;;8.75;5.75;;;;;;;;5097425;27;50988;-53
2022/06/15 14:13:57;;;;;;;;;9.00;7.00;;;;;;;;5087765;27;51191;-53
2022/06/15 14:17:00;;;;;;;;;9.50;5.25;;;;;;;;5096456;27;51065;-55
2022/06/15 14:19:47;;;;;;;;;15.00;13.00;;;;;;;;5097065;27;51130;-58
2022/06/15 14:22:54;;;;;;;;;17.75;14.25;;;;;;;;5096769;27;51086;-53
2022/06/15 14:25:51;;;;;;;;;23.50;22.25;;;;;;;;5095254;27;51043;-55
2022/06/15 14:28:36;;;;;;;;;20.00;18.00;;;;;;;;5096932;27;51256;-55
2022/06/15 14:31:26;;;;;;;;;19.75;18.75;;;;;;;;5096630;27;51197;-55
2022/06/15 14:34:15;;;;;;;;;21.25;20.25;;;;;;;;5096694;27;51366;-54
2022/06/15 14:37:12;;;;;;;;;27.50;21.50;;;;;;;;5096755;27;51193;-54
2022/06/15 14:39:59;;;;;;;;;27.50;26.75;;;;;;;;5097105;27;51173;-55
2022/06/15 14:42:55;;;;;;;;;29.75;23.50;;;;;;;;5096397;27;51476;-55
2022/06/15 14:45:48;;;;;;;;;25.75;20.75;;;;;;;;5096391;27;51119;-54
2022/06/15 14:48:35;;;;;;;;;25.75;23.75;;;;;;;;5096625;27;51102;-54
2022/06/15 14:51:21;;;;;;;;;23.50;22.25;;;;;;;;5095917;27;51145;-53
2022/06/15 14:54:09;;;;;;;;;22.25;19.25;;;;;;;;5096154;27;51123;-54
2022/06/15 14:56:58;;;;;;;;;26.75;21.50;;;;;;;;5096143;27;51163;-53
2022/06/15 14:59:42;;;;;;;;;27.50;22.50;;;;;;;;5095985;27;51050;-56
2022/06/15 15:02:48;;;;;;;;;26.00;19.75;;;;;;;;5081991;27;51153;-56
2022/06/15 15:05:55;;;;;;;;;25.75;19.75;;;;;;;;5076159;27;51115;-53
2022/06/15 15:09:09;;;;;;;;;14.25;13.00;;;;;;;;5082549;27;51086;-58
2022/06/15 15:11:55;;;;;;;;;19.75;18.50;;;;;;;;5082570;27;51392;-56
2022/06/15 15:14:49;;;;;;;;;21.75;19.75;;;;;;;;5081552;27;51420;-56
2022/06/15 15:17:52;;;;;;;;;27.75;21.75;;;;;;;;5082301;27;51392;-55
2022/06/15 15:20:39;;;;;;;;;22.00;18.00;;;;;;;;5082168;27;51114;-55
2022/06/15 15:23:43;;;;;;;;;25.50;21.00;;;;;;;;5081910;27;51189;-57
2022/06/15 15:26:38;;;;;;;;;18.75;15.75;;;;;;;;5081837;27;51456;-57
2022/06/15 15:35:56;;;;;;;;;26.75;23.25;;;;;;;;5081131;27;51437;-56
2022/06/15 15:38:43;;;;;;;;;21.50;17.25;;;;;;;;5081913;27;51197;-56
2022/06/15 15:41:37;;;;;;;;;18.50;15.50;;;;;;;;5066387;27;51556;-54
2022/06/15 15:44:24;;;;;;;;;20.75;17.00;;;;;;;;5082049;27;51036;-55
2022/06/15 15:47:11;;;;;;;;;27.50;24.25;;;;;;;;5081666;27;51026;-56
2022/06/15 15:50:11;;;;;;;;;16.00;14.00;;;;;;;;5081306;27;51035;-56
2022/06/15 15:53:00;;;;;;;;;15.00;12.50;;;;;;;;5072783;27;52224;-54
2022/06/15 15:55:45;;;;;;;;;18.50;11.75;;;;;;;;5074759;27;51212;-54
2022/06/15 15:58:38;;;;;;;;;16.75;10.00;;;;;;;;5081502;27;51161;-55
2022/06/15 16:01:24;;;;;;;;;16.50;12.50;;;;;;;;5081117;27;51332;-55
2022/06/15 16:04:09;;;;;;;;;12.25;8.50;;;;;;;;5081438;27;51103;-56
2022/06/15 16:06:56;;;;;;;;;14.75;10.00;;;;;;;;5079294;27;51157;-55
2022/06/15 16:09:42;;;;;;;;;12.50;10.75;;;;;;;;5081194;27;51180;-55
2022/06/15 16:12:29;;;;;;;;;11.00;9.25;;;;;;;;5079202;27;51050;-56
2022/06/15 16:15:14;;;;;;;;;13.75;12.00;;;;;;;;5081671;27;51166;-56
2022/06/15 16:18:01;;;;;;;;;10.50;10.00;;;;;;;;5081669;27;51122;-54
2022/06/15 16:21:02;;;;;;;;;12.00;12.00;;;;;;;;5081356;27;51004;-54
2022/06/15 16:24:09;;;;;;;;;18.50;12.00;;;;;;;;5081426;27;51092;-56
2022/06/15 16:27:25;;;;;;;;;17.25;15.75;;;;;;;;5080976;27;51133;-56
2022/06/15 16:30:12;;;;;;;;;21.75;14.25;;;;;;;;5081339;27;51161;-56
2022/06/15 16:32:56;;;;;;;;;20.50;15.75;;;;;;;;5081129;27;51484;-55
2022/06/15 16:35:42;;;;;;;;;16.00;12.75;;;;;;;;5081474;27;51147;-54
2022/06/15 16:38:26;;;;;;;;;13.75;10.00;;;;;;;;5080766;27;51406;-56
2022/06/15 16:41:13;;;;;;;;;16.50;11.25;;;;;;;;5080652;27;51146;-57
2022/06/15 16:43:57;;;;;;;;;9.50;8.75;;;;;;;;5079883;27;51488;-56
2022/06/15 16:46:42;;;;;;;;;19.50;10.25;;;;;;;;5077688;27;51275;-55
2022/06/15 16:49:26;;;;;;;;;12.75;10.25;;;;;;;;5079014;27;51255;-55
2022/06/15 16:52:11;;;;;;;;;9.00;8.00;;;;;;;;5079046;27;51565;-57
2022/06/15 16:54:55;;;;;;;;;17.50;9.00;;;;;;;;5078555;27;51128;-56
2022/06/15 17:01:01;;;;;;;;;12.50;10.00;;;;;;;;4997402;28;51228;-55
2022/06/15 17:04:09;;;;;;;;;18.75;10.50;;;;;;;;4997843;28;51425;-53
2022/06/15 17:06:58;;;;;;;;;17.75;11.25;;;;;;;;4991418;28;51319;-54
2022/06/15 17:09:43;;;;;;;;;15.00;10.00;;;;;;;;4990729;28;51126;-55
2022/06/15 17:12:28;;;;;;;;;9.00;8.00;;;;;;;;4996686;28;51138;-52
2022/06/15 17:15:12;;;;;;;;;13.75;12.50;;;;;;;;4997442;28;51119;-57
2022/06/15 17:17:57;;;;;;;;;12.25;10.00;;;;;;;;4996894;28;51071;-55
2022/06/15 17:20:42;;;;;;;;;10.25;9.50;;;;;;;;4997494;28;51169;-55
2022/06/15 17:23:29;;;;;;;;;14.25;10.25;;;;;;;;4988993;28;51181;-56
2022/06/15 17:26:16;;;;;;;;;13.50;8.75;;;;;;;;4994469;28;51265;-55
2022/06/15 17:29:02;;;;;;;;;13.50;10.50;;;;;;;;4994324;28;51221;-55
2022/06/15 17:31:58;;;;;;;;;31.25;25.25;;;;;;;;4996119;28;51218;-56
2022/06/15 17:34:50;;;;;;;;;13.00;11.00;;;;;;;;5025843;28;51349;-57
2022/06/15 17:37:44;;;;;;;;;15.25;9.00;;;;;;;;5039615;28;51152;-54
2022/06/15 17:40:28;;;;;;;;;9.50;8.25;;;;;;;;5039466;28;51067;-56
2022/06/15 17:43:13;;;;;;;;;13.75;10.50;;;;;;;;5039540;28;51554;-55
2022/06/15 17:46:03;;;;;;;;;11.25;7.75;;;;;;;;5039656;28;51115;-56
2022/06/15 17:48:50;;;;;;;;;10.00;8.00;;;;;;;;5039210;28;51153;-55
2022/06/15 17:51:56;;;;;;;;;10.00;8.00;;;;;;;;5039673;28;51166;-55
2022/06/15 17:54:48;;;;;;;;;8.75;7.00;;;;;;;;5039511;28;51491;-55
2022/06/15 17:57:33;;;;;;;;;9.50;6.75;;;;;;;;5039604;28;51150;-55
2022/06/15 18:00:20;;;;;;;;;13.50;8.00;;;;;;;;5047471;28;51373;-55
2022/06/15 18:03:05;;;;;;;;;6.75;6.00;;;;;;;;5079658;28;51121;-56
2022/06/15 18:05:51;;;;;;;;;11.25;8.00;;;;;;;;5064828;28;51145;-55
2022/06/15 18:08:38;;;;;;;;;8.00;6.25;;;;;;;;5064914;28;51401;-55
2022/06/15 18:11:23;;;;;;;;;8.75;7.00;;;;;;;;5079484;28;51106;-56
2022/06/15 18:14:09;;;;;;;;;14.25;5.25;;;;;;;;5078188;28;50977;-56
2022/06/15 18:17:01;;;;;;;;;10.25;7.25;;;;;;;;5077650;28;51170;-56
2022/06/15 18:19:57;;;;;;;;;8.75;6.75;;;;;;;;5078906;28;51524;-55
2022/06/15 18:22:43;;;;;;;;;8.75;7.50;;;;;;;;5078796;28;51143;-56
2022/06/15 18:25:30;;;;;;;;;16.50;13.00;;;;;;;;5064062;28;51397;-56
2022/06/15 18:28:24;;;;;;;;;14.50;11.00;;;;;;;;5069716;28;50995;-56
2022/06/15 18:31:11;;;;;;;;;11.75;8.00;;;;;;;;5079290;28;51124;-57
2022/06/15 18:34:06;;;;;;;;;10.00;6.75;;;;;;;;5070556;28;51182;-56
2022/06/15 18:37:02;;;;;;;;;7.00;5.25;;;;;;;;5079133;27;51178;-56
2022/06/15 18:39:48;;;;;;;;;10.00;7.00;;;;;;;;5080945;27;51182;-56
2022/06/15 18:42:33;;;;;;;;;12.75;8.75;;;;;;;;5065582;27;51155;-55
2022/06/15 18:48:20;;;;;;;;;17.00;10.50;;;;;;;;5080199;27;51200;-56
2022/06/15 18:51:05;;;;;;;;;9.50;9.50;;;;;;;;5080783;27;51170;-56
2022/06/15 18:53:52;;;;;;;;;12.50;9.00;;;;;;;;5080141;27;51206;-56
2022/06/15 18:56:37;;;;;;;;;12.50;11.25;;;;;;;;5066355;27;51128;-54
2022/06/15 18:59:22;;;;;;;;;14.00;10.00;;;;;;;;5082322;27;51503;-56
2022/06/15 19:02:09;;;;;;;;;12.25;8.25;;;;;;;;5080375;27;51136;-54
2022/06/15 19:04:53;;;;;;;;;12.00;9.75;;;;;;;;5080701;27;51159;-56
2022/06/15 19:07:38;;;;;;;;;12.25;12.00;;;;;;;;5080735;27;51019;-56
2022/06/15 19:10:22;;;;;;;;;10.00;8.25;;;;;;;;5079920;27;51158;-55
2022/06/15 19:13:13;;;;;;;;;14.00;11.75;;;;;;;;5080238;27;51099;-54
2022/06/15 19:16:06;;;;;;;;;15.25;12.50;;;;;;;;5079601;27;51571;-56
2022/06/15 19:18:52;;;;;;;;;16.50;12.25;;;;;;;;5079761;27;51288;-55
2022/06/15 19:21:40;;;;;;;;;14.50;10.50;;;;;;;;5080620;27;51255;-55
2022/06/15 19:24:47;;;;;;;;;11.00;7.75;;;;;;;;5064944;27;51251;-57
2022/06/15 19:27:31;;;;;;;;;16.50;12.75;;;;;;;;5079441;27;51183;-58
2022/06/15 19:30:17;;;;;;;;;12.50;12.00;;;;;;;;5081424;27;51054;-57
2022/06/15 19:33:01;;;;;;;;;21.00;18.50;;;;;;;;5081984;27;51046;-56
2022/06/15 19:35:46;;;;;;;;;18.75;15.75;;;;;;;;5081506;27;51154;-55
2022/06/15 19:38:30;;;;;;;;;16.25;13.75;;;;;;;;5080318;27;51169;-57
2022/06/15 19:41:15;;;;;;;;;15.75;12.00;;;;;;;;5081584;27;51130;-58
2022/06/15 19:44:12;;;;;;;;;14.25;12.25;;;;;;;;5081063;27;51015;-57
2022/06/15 19:46:59;;;;;;;;;15.00;14.25;;;;;;;;5080783;27;51051;-58
2022/06/15 19:49:45;;;;;;;;;18.75;17.75;;;;;;;;5079531;27;51083;-56
2022/06/15 19:52:29;;;;;;;;;18.00;16.50;;;;;;;;5079675;27;51220;-57
2022/06/15 19:55:17;;;;;;;;;22.25;20.50;;;;;;;;5079189;27;51114;-57
2022/06/15 19:58:03;;;;;;;;;22.50;20.25;;;;;;;;5079511;27;51117;-58